createdAt,value
2022-10-30T00:01:42.220Z,48.34
2022-10-30T00:04:08.352Z,48.47
2022-10-30T00:06:34.453Z,48.40
2022-10-30T00:09:00.550Z,48.45
2022-10-30T00:11:26.632Z,48.35
2022-10-30T00:13:52.768Z,48.36
2022-10-30T00:16:18.871Z,48.20
2022-10-30T00:18:44.970Z,48.20
2022-10-30T00:21:11.390Z,48.23
2022-10-30T00:23:37.501Z,48.21
2022-10-30T00:26:03.593Z,48.21
2022-10-30T00:28:29.706Z,48.29
2022-10-30T00:30:55.810Z,48.43
2022-10-30T00:33:22.129Z,48.42
2022-10-30T00:35:48.257Z,48.48
2022-10-30T00:38:14.355Z,48.64
2022-10-30T00:40:40.449Z,48.72
2022-10-30T00:43:06.573Z,48.83
2022-10-30T00:45:32.668Z,48.84
2022-10-30T00:47:59.106Z,49.07
2022-10-30T00:52:56.891Z,49.38
2022-10-30T00:55:23.138Z,49.61
2022-10-30T00:57:49.264Z,49.60
2022-10-30T01:00:15.368Z,49.66
2022-10-30T01:02:41.547Z,49.97
2022-10-30T01:05:07.779Z,50.00
2022-10-30T01:07:33.890Z,50.11
2022-10-30T01:10:00.009Z,50.16
2022-10-30T01:12:26.133Z,50.21
2022-10-30T01:14:52.291Z,50.22
2022-10-30T01:17:18.388Z,50.18
2022-10-30T01:19:44.530Z,50.11
2022-10-30T01:22:10.620Z,50.11
2022-10-30T01:24:36.708Z,50.23
2022-10-30T01:27:02.836Z,50.55
2022-10-30T01:29:28.929Z,51.03
2022-10-30T01:31:55.027Z,51.14
2022-10-30T01:34:21.139Z,51.24
2022-10-30T01:36:47.240Z,51.36
2022-10-30T01:39:13.337Z,51.34
2022-10-30T01:41:39.458Z,51.34
2022-10-30T01:44:05.556Z,51.54
2022-10-30T01:46:31.644Z,51.57
2022-10-30T01:48:57.832Z,51.79
2022-10-30T01:51:23.933Z,51.99
2022-10-30T01:53:50.057Z,52.25
2022-10-30T01:56:16.177Z,52.41
2022-10-30T01:58:42.269Z,52.70
2022-10-30T02:01:08.496Z,52.79
2022-10-30T02:03:34.664Z,52.87
2022-10-30T02:06:00.777Z,53.04
2022-10-30T02:08:26.873Z,53.25
2022-10-30T02:10:52.997Z,53.42
2022-10-30T02:13:19.095Z,53.53
2022-10-30T02:15:45.204Z,53.76
2022-10-30T02:18:11.677Z,54.01
2022-10-30T02:20:37.804Z,54.32
2022-10-30T02:23:04.131Z,54.55
2022-10-30T02:25:30.477Z,54.60
2022-10-30T02:27:56.580Z,54.72
2022-10-30T02:30:22.697Z,54.81
2022-10-30T02:32:48.827Z,55.20
2022-10-30T02:35:14.922Z,55.35
2022-10-30T02:37:41.032Z,55.45
2022-10-30T02:40:07.200Z,55.60
2022-10-30T02:42:33.294Z,55.75
2022-10-30T02:44:59.424Z,55.78
2022-10-30T02:47:25.548Z,55.95
2022-10-30T02:49:51.738Z,56.05
2022-10-30T02:52:17.825Z,56.22
2022-10-30T02:54:43.949Z,56.37
2022-10-30T02:57:10.049Z,56.58
2022-10-30T02:59:36.142Z,56.83
2022-10-30T03:02:02.377Z,57.00
2022-10-30T03:04:28.550Z,57.13
2022-10-30T03:06:54.658Z,57.19
2022-10-30T03:09:20.784Z,57.41
2022-10-30T03:11:46.871Z,57.34
2022-10-30T03:14:12.971Z,57.44
2022-10-30T03:16:39.166Z,57.47
2022-10-30T03:19:05.289Z,57.42
2022-10-30T03:21:31.397Z,57.41
2022-10-30T03:23:57.527Z,57.57
2022-10-30T03:26:23.616Z,57.44
2022-10-30T03:28:49.719Z,57.48
2022-10-30T03:31:15.833Z,57.57
2022-10-30T03:33:41.950Z,57.83
2022-10-30T03:36:08.043Z,57.82
2022-10-30T03:38:34.164Z,57.87
2022-10-30T03:41:00.248Z,58.15
2022-10-30T03:43:26.349Z,58.14
2022-10-30T03:45:52.455Z,58.49
2022-10-30T03:48:18.544Z,58.48
2022-10-30T03:50:44.646Z,58.67
2022-10-30T03:53:10.816Z,58.68
2022-10-30T03:55:36.892Z,58.63
2022-10-30T03:58:02.992Z,58.72
2022-10-30T04:00:29.153Z,59.11
2022-10-30T04:02:55.474Z,59.22
2022-10-30T04:05:21.850Z,59.25
2022-10-30T04:07:47.969Z,59.49
2022-10-30T04:10:16.719Z,59.43
2022-10-30T04:12:45.300Z,59.77
2022-10-30T04:15:11.468Z,59.92
2022-10-30T04:17:37.566Z,60.31
2022-10-30T04:20:03.683Z,60.62
2022-10-30T04:22:29.808Z,60.62
2022-10-30T04:24:55.908Z,60.93
2022-10-30T04:27:22.000Z,60.83
2022-10-30T04:29:48.112Z,61.00
2022-10-30T04:32:14.212Z,61.06
2022-10-30T04:34:40.342Z,61.11
2022-10-30T04:37:06.503Z,61.35
2022-10-30T04:39:33.038Z,61.53
2022-10-30T04:41:59.144Z,61.56
2022-10-30T04:44:25.263Z,61.85
2022-10-30T04:46:51.362Z,61.92
2022-10-30T04:49:17.454Z,62.07
2022-10-30T04:51:43.564Z,62.17
2022-10-30T04:54:09.668Z,62.30
2022-10-30T04:56:35.764Z,62.55
2022-10-30T04:59:01.918Z,62.82
2022-10-30T05:01:28.123Z,63.23
2022-10-30T05:03:54.993Z,63.25
2022-10-30T05:06:21.318Z,63.49
2022-10-30T05:08:47.493Z,63.73
2022-10-30T05:11:13.595Z,63.70
2022-10-30T05:13:39.709Z,63.86
2022-10-30T05:16:05.817Z,64.04
2022-10-30T05:18:31.934Z,64.23
2022-10-30T05:20:58.073Z,64.12
2022-10-30T05:23:24.175Z,64.04
2022-10-30T05:25:50.305Z,64.28
2022-10-30T05:28:16.429Z,64.33
2022-10-30T05:30:42.549Z,64.45
2022-10-30T05:33:08.659Z,64.47
2022-10-30T05:35:34.784Z,64.40
2022-10-30T05:38:01.045Z,64.76
2022-10-30T05:40:27.171Z,64.69
2022-10-30T05:42:53.277Z,64.92
2022-10-30T05:45:19.400Z,64.98
2022-10-30T05:47:45.490Z,65.12
2022-10-30T05:50:11.641Z,65.17
2022-10-30T05:52:37.726Z,65.33
2022-10-30T05:55:03.812Z,65.61
2022-10-30T05:57:29.967Z,65.75
2022-10-30T05:59:56.082Z,65.88
2022-10-30T06:02:22.222Z,65.80
2022-10-30T06:04:48.405Z,65.97
2022-10-30T06:07:14.495Z,66.01
2022-10-30T06:09:40.592Z,65.98
2022-10-30T06:12:06.745Z,66.17
2022-10-30T06:14:32.832Z,66.21
2022-10-30T06:16:58.927Z,65.96
2022-10-30T06:19:25.053Z,66.16
2022-10-30T06:21:51.165Z,66.08
2022-10-30T06:24:17.294Z,66.16
2022-10-30T06:26:43.407Z,66.12
2022-10-30T06:29:09.513Z,66.19
2022-10-30T06:31:35.633Z,66.10
2022-10-30T06:34:02.127Z,66.17
2022-10-30T06:36:28.226Z,66.02
2022-10-30T06:38:54.313Z,65.92
2022-10-30T06:41:23.342Z,65.84
2022-10-30T06:43:51.915Z,65.91
2022-10-30T06:46:18.087Z,65.96
2022-10-30T06:48:44.212Z,65.93
2022-10-30T06:51:10.321Z,65.89
2022-10-30T06:53:36.442Z,65.71
2022-10-30T06:56:02.610Z,65.92
2022-10-30T06:58:28.704Z,65.89
2022-10-30T07:00:54.808Z,66.17
2022-10-30T07:03:21.229Z,66.09
2022-10-30T07:05:47.413Z,66.32
2022-10-30T07:08:13.539Z,66.28
2022-10-30T07:10:40.132Z,66.17
2022-10-30T07:13:06.269Z,66.32
2022-10-30T07:15:32.470Z,66.33
2022-10-30T07:17:58.867Z,66.65
2022-10-30T07:20:25.302Z,66.79
2022-10-30T07:22:51.398Z,66.87
2022-10-30T07:25:17.509Z,66.79
2022-10-30T07:27:43.606Z,66.72
2022-10-30T07:30:09.730Z,66.80
2022-10-30T07:32:35.855Z,67.05
2022-10-30T07:35:01.987Z,67.03
2022-10-30T07:37:28.104Z,67.12
2022-10-30T07:39:54.285Z,67.22
2022-10-30T07:42:20.381Z,67.34
2022-10-30T07:44:46.478Z,67.67
2022-10-30T07:47:12.584Z,67.72
2022-10-30T07:49:38.704Z,67.68
2022-10-30T07:52:04.794Z,67.90
2022-10-30T07:54:30.951Z,67.93
2022-10-30T07:56:57.067Z,68.08
2022-10-30T07:59:23.188Z,68.03
2022-10-30T08:01:49.562Z,67.99
2022-10-30T08:04:15.770Z,67.98
2022-10-30T08:06:41.860Z,67.98
2022-10-30T08:09:07.996Z,67.99
2022-10-30T08:11:34.130Z,67.69
2022-10-30T08:14:00.233Z,67.84
2022-10-30T08:16:26.346Z,67.78
2022-10-30T08:18:52.463Z,67.64
2022-10-30T08:21:18.564Z,67.68
2022-10-30T08:23:44.682Z,67.43
2022-10-30T08:26:10.788Z,67.49
2022-10-30T08:28:36.898Z,67.44
2022-10-30T08:31:03.016Z,67.26
2022-10-30T08:33:29.119Z,67.15
2022-10-30T08:35:55.224Z,67.20
2022-10-30T08:38:21.391Z,67.16
2022-10-30T08:40:47.480Z,67.02
2022-10-30T08:43:13.571Z,66.92
2022-10-30T08:45:39.705Z,66.92
2022-10-30T08:48:05.795Z,66.85
2022-10-30T08:50:31.900Z,66.83
2022-10-30T08:52:58.222Z,66.63
2022-10-30T08:55:24.589Z,66.48
2022-10-30T08:57:50.688Z,66.43
2022-10-30T09:00:16.797Z,66.48
2022-10-30T09:02:43.033Z,66.47
2022-10-30T09:05:09.354Z,66.65
2022-10-30T09:07:35.604Z,66.74
2022-10-30T09:10:01.692Z,66.61
2022-10-30T09:12:27.797Z,66.63
2022-10-30T09:14:53.957Z,66.48
2022-10-30T09:17:20.060Z,66.40
2022-10-30T09:19:46.169Z,66.53
2022-10-30T09:22:12.279Z,66.39
2022-10-30T09:24:38.376Z,66.35
2022-10-30T09:27:04.472Z,66.18
2022-10-30T09:29:32.151Z,65.97
2022-10-30T09:31:58.247Z,65.89
2022-10-30T09:34:24.373Z,65.68
2022-10-30T09:36:50.628Z,65.60
2022-10-30T09:39:16.745Z,65.47
2022-10-30T09:41:45.811Z,65.28
2022-10-30T09:44:14.656Z,64.96
2022-10-30T09:46:40.748Z,64.67
2022-10-30T09:49:06.912Z,64.56
2022-10-30T09:51:33.096Z,64.36
2022-10-30T09:53:59.204Z,64.05
2022-10-30T09:56:25.301Z,63.90
2022-10-30T09:58:51.423Z,63.60
2022-10-30T10:01:17.612Z,63.42
2022-10-30T10:03:43.827Z,62.98
2022-10-30T10:06:10.009Z,62.74
2022-10-30T10:08:36.113Z,62.45
2022-10-30T10:11:02.271Z,62.07
2022-10-30T10:13:28.378Z,61.81
2022-10-30T10:15:54.482Z,61.69
2022-10-30T10:18:20.752Z,61.25
2022-10-30T10:20:46.991Z,60.99
2022-10-30T10:23:13.117Z,60.69
2022-10-30T10:25:39.237Z,60.59
2022-10-30T10:28:05.353Z,60.21
2022-10-30T10:30:31.450Z,60.08
2022-10-30T10:32:57.882Z,59.92
2022-10-30T10:35:24.257Z,59.50
2022-10-30T10:37:50.357Z,59.40
2022-10-30T10:40:16.442Z,59.09
2022-10-30T10:42:42.563Z,58.85
2022-10-30T10:45:08.660Z,58.62
2022-10-30T10:47:34.758Z,58.36
2022-10-30T10:50:00.878Z,58.22
2022-10-30T10:52:27.001Z,57.89
2022-10-30T10:54:53.110Z,57.68
2022-10-30T10:57:19.233Z,57.52
2022-10-30T10:59:45.327Z,57.09
2022-10-30T11:02:11.507Z,56.80
2022-10-30T11:04:37.689Z,56.64
2022-10-30T11:07:03.803Z,56.39
2022-10-30T11:09:29.912Z,56.30
2022-10-30T11:11:56.025Z,56.23
2022-10-30T11:14:22.127Z,56.04
2022-10-30T11:16:48.219Z,55.59
2022-10-30T11:19:14.360Z,55.44
2022-10-30T11:21:40.460Z,55.57
2022-10-30T11:24:06.595Z,55.13
2022-10-30T11:26:32.728Z,54.99
2022-10-30T11:28:58.851Z,54.76
2022-10-30T11:31:24.957Z,54.60
2022-10-30T11:33:51.110Z,54.40
2022-10-30T11:36:17.207Z,54.18
2022-10-30T11:38:43.303Z,53.94
2022-10-30T11:41:09.438Z,53.80
2022-10-30T11:43:35.533Z,53.63
2022-10-30T11:46:01.628Z,53.37
2022-10-30T11:48:27.750Z,53.02
2022-10-30T11:50:53.925Z,52.80
2022-10-30T11:53:20.035Z,52.46
2022-10-30T11:55:46.152Z,52.24
2022-10-30T11:58:12.276Z,52.01
2022-10-30T12:00:38.390Z,51.76
2022-10-30T12:03:04.526Z,51.68
2022-10-30T12:05:30.640Z,51.36
2022-10-30T12:07:56.749Z,50.72
2022-10-30T12:10:22.879Z,50.07
2022-10-30T12:12:48.981Z,49.53
2022-10-30T12:15:15.089Z,49.12
2022-10-30T12:17:41.205Z,48.81
2022-10-30T12:20:07.331Z,48.86
2022-10-30T12:22:33.448Z,48.52
2022-10-30T12:24:59.739Z,47.63
2022-10-30T12:27:25.901Z,46.99
2022-10-30T12:30:07.814Z,46.31
2022-10-30T12:32:39.324Z,46.21
2022-10-30T12:35:05.694Z,46.07
2022-10-30T12:37:31.806Z,45.63
2022-10-30T12:39:57.965Z,45.04
2022-10-30T12:42:24.093Z,44.41
2022-10-30T12:44:50.198Z,44.15
2022-10-30T12:47:16.328Z,44.11
2022-10-30T12:49:42.440Z,44.01
2022-10-30T12:52:08.552Z,43.92
2022-10-30T12:54:34.669Z,44.05
2022-10-30T12:57:00.760Z,43.88
2022-10-30T12:59:26.852Z,43.76
2022-10-30T13:01:53.154Z,43.66
2022-10-30T13:04:19.384Z,43.55
2022-10-30T13:06:45.475Z,43.60
2022-10-30T13:09:11.786Z,43.62
2022-10-30T13:11:37.885Z,43.61
2022-10-30T13:14:03.979Z,43.10
2022-10-30T13:16:30.097Z,42.92
2022-10-30T13:18:56.193Z,42.94
2022-10-30T13:21:22.300Z,42.69
2022-10-30T13:23:48.420Z,42.53
2022-10-30T13:26:14.509Z,42.57
2022-10-30T13:28:40.605Z,42.72
2022-10-30T13:31:06.765Z,42.68
2022-10-30T13:33:32.878Z,42.59
2022-10-30T13:35:58.971Z,42.71
2022-10-30T13:38:25.100Z,42.82
2022-10-30T13:40:51.189Z,42.78
2022-10-30T13:43:17.303Z,42.92
2022-10-30T13:45:43.422Z,42.97
2022-10-30T13:48:09.507Z,43.25
2022-10-30T13:50:35.607Z,43.32
2022-10-30T13:53:02.058Z,43.40
2022-10-30T13:55:28.429Z,43.35
2022-10-30T13:57:54.545Z,43.44
2022-10-30T14:00:20.677Z,43.53
2022-10-30T14:02:46.905Z,43.69
2022-10-30T14:05:13.121Z,43.84
2022-10-30T14:07:39.272Z,43.96
2022-10-30T14:10:05.373Z,44.04
2022-10-30T14:12:31.477Z,44.03
2022-10-30T14:14:57.587Z,43.98
2022-10-30T14:17:23.684Z,43.82
2022-10-30T14:19:49.794Z,43.53
2022-10-30T14:22:15.956Z,43.54
2022-10-30T14:24:42.047Z,43.58
2022-10-30T14:27:08.126Z,43.69
2022-10-30T14:29:34.294Z,43.75
2022-10-30T14:32:00.398Z,43.56
2022-10-30T14:34:26.526Z,43.62
2022-10-30T14:36:52.632Z,43.75
2022-10-30T14:39:18.727Z,43.87
2022-10-30T14:41:44.832Z,43.76
2022-10-30T14:44:10.946Z,43.65
2022-10-30T14:46:37.048Z,43.82
2022-10-30T14:49:03.158Z,43.75
2022-10-30T14:51:29.268Z,43.64
2022-10-30T14:53:55.372Z,43.82
2022-10-30T14:56:21.485Z,43.63
2022-10-30T14:58:47.620Z,43.69
2022-10-30T15:01:13.805Z,43.54
2022-10-30T15:03:40.127Z,43.68
2022-10-30T15:06:06.307Z,43.83
2022-10-30T15:08:32.452Z,43.85
2022-10-30T15:10:58.539Z,44.04
2022-10-30T15:13:24.686Z,43.97
2022-10-30T15:15:50.771Z,44.16
2022-10-30T15:18:16.899Z,44.17
2022-10-30T15:20:43.035Z,44.15
2022-10-30T15:23:09.153Z,44.27
2022-10-30T15:25:35.247Z,44.19
2022-10-30T15:28:01.801Z,44.29
2022-10-30T15:30:28.266Z,44.48
2022-10-30T15:32:54.361Z,44.67
2022-10-30T15:35:20.538Z,44.79
2022-10-30T15:37:46.616Z,44.95
2022-10-30T15:40:12.708Z,45.23
2022-10-30T15:42:38.829Z,45.39
2022-10-30T15:45:04.941Z,45.45
2022-10-30T15:47:31.044Z,45.73
2022-10-30T15:49:57.226Z,46.07
2022-10-30T15:52:23.352Z,46.15
2022-10-30T15:54:49.439Z,46.35
2022-10-30T15:57:49.349Z,46.56
2022-10-30T16:00:01.713Z,46.70
2022-10-30T16:02:27.986Z,46.90
2022-10-30T16:04:54.157Z,46.95
2022-10-30T16:07:20.251Z,47.07
2022-10-30T16:09:46.371Z,47.24
2022-10-30T16:12:12.925Z,47.46
2022-10-30T16:14:39.096Z,47.73
2022-10-30T16:17:05.227Z,47.95
2022-10-30T16:19:31.324Z,48.08
2022-10-30T16:21:57.410Z,48.14
2022-10-30T16:24:23.533Z,48.41
2022-10-30T16:26:49.626Z,48.33
2022-10-30T16:29:15.722Z,48.69
2022-10-30T16:31:41.876Z,48.70
2022-10-30T16:34:08.003Z,48.92
2022-10-30T16:36:34.100Z,48.91
2022-10-30T16:39:00.525Z,49.00
2022-10-30T16:41:27.211Z,49.05
2022-10-30T16:43:53.508Z,49.24
2022-10-30T16:46:19.618Z,49.32
2022-10-30T16:48:45.703Z,49.43
2022-10-30T16:51:11.805Z,49.50
2022-10-30T16:53:37.959Z,49.69
2022-10-30T16:56:04.064Z,49.74
2022-10-30T16:58:30.158Z,49.89
2022-10-30T17:00:56.357Z,50.25
2022-10-30T17:03:22.496Z,50.30
2022-10-30T17:05:48.595Z,50.30
2022-10-30T17:08:14.710Z,50.42
2022-10-30T17:10:40.810Z,50.62
2022-10-30T17:13:06.904Z,50.70
2022-10-30T17:15:33.519Z,50.79
2022-10-30T17:17:59.905Z,50.74
2022-10-30T17:20:28.289Z,50.85
2022-10-30T17:22:57.600Z,50.97
2022-10-30T17:25:23.931Z,50.97
2022-10-30T17:27:50.037Z,51.20
2022-10-30T17:30:16.152Z,51.39
2022-10-30T17:32:42.274Z,51.42
2022-10-30T17:35:08.374Z,51.48
2022-10-30T17:37:34.505Z,51.62
2022-10-30T17:40:00.603Z,51.63
2022-10-30T17:42:26.710Z,51.74
2022-10-30T17:44:52.824Z,51.86
2022-10-30T17:47:18.938Z,51.82
2022-10-30T17:49:45.041Z,51.91
2022-10-30T17:52:11.152Z,52.01
2022-10-30T17:54:37.249Z,52.20
2022-10-30T17:57:03.369Z,52.45
2022-10-30T17:59:29.485Z,52.61
2022-10-30T18:01:55.698Z,52.63
2022-10-30T18:04:21.871Z,52.90
2022-10-30T18:06:47.986Z,52.92
2022-10-30T18:09:14.103Z,53.13
2022-10-30T18:11:40.194Z,53.33
2022-10-30T18:14:06.306Z,53.33
2022-10-30T18:16:32.487Z,53.53
2022-10-30T18:18:58.597Z,53.62
2022-10-30T18:21:25.007Z,53.88
2022-10-30T18:23:52.898Z,53.89
2022-10-30T18:26:19.414Z,54.00
2022-10-30T18:28:45.539Z,54.12
2022-10-30T18:31:11.654Z,54.23
2022-10-30T18:33:37.784Z,54.09
2022-10-30T18:36:03.913Z,54.44
2022-10-30T18:38:30.016Z,54.50
2022-10-30T18:40:56.095Z,54.68
2022-10-30T18:43:22.217Z,54.59
2022-10-30T18:45:48.307Z,54.78
2022-10-30T18:48:14.395Z,54.81
2022-10-30T18:50:40.808Z,54.86
2022-10-30T18:53:06.901Z,55.01
2022-10-30T18:55:33.039Z,55.03
2022-10-30T18:57:59.536Z,55.17
2022-10-30T19:00:26.485Z,55.33
2022-10-30T19:02:52.805Z,55.55
2022-10-30T19:05:19.113Z,55.69
2022-10-30T19:07:45.214Z,55.83
2022-10-30T19:10:11.324Z,55.96
2022-10-30T19:12:42.194Z,55.92
2022-10-30T19:15:08.529Z,56.02
2022-10-30T19:17:34.616Z,55.98
2022-10-30T19:20:00.734Z,55.78
2022-10-30T19:22:26.836Z,56.07
2022-10-30T19:24:52.938Z,56.05
2022-10-30T19:27:19.079Z,56.07
2022-10-30T19:29:45.251Z,56.25
2022-10-30T19:32:11.363Z,56.15
2022-10-30T19:34:37.659Z,56.30
2022-10-30T19:37:03.783Z,56.32
2022-10-30T19:39:29.930Z,56.45
2022-10-30T19:41:56.046Z,56.74
2022-10-30T19:44:22.158Z,56.75
2022-10-30T19:46:48.251Z,56.71
2022-10-30T19:49:14.352Z,57.11
2022-10-30T19:51:40.504Z,57.16
2022-10-30T19:54:06.597Z,57.35
2022-10-30T19:56:32.706Z,57.45
2022-10-30T19:58:58.817Z,57.53
2022-10-30T20:01:25.135Z,57.68
2022-10-30T20:03:51.360Z,57.68
2022-10-30T20:06:17.477Z,57.90
2022-10-30T20:08:43.596Z,57.96
2022-10-30T20:11:09.721Z,58.23
2022-10-30T20:13:35.861Z,58.39
2022-10-30T20:16:01.950Z,58.49
2022-10-30T20:18:28.204Z,58.65
2022-10-30T20:20:54.306Z,58.89
2022-10-30T20:23:20.471Z,58.93
2022-10-30T20:25:46.623Z,59.08
2022-10-30T20:28:12.754Z,59.23
2022-10-30T20:30:38.864Z,59.31
2022-10-30T20:33:05.070Z,59.66
2022-10-30T20:35:31.176Z,59.63
2022-10-30T20:37:57.335Z,59.73
2022-10-30T20:40:23.446Z,59.79
2022-10-30T20:42:49.539Z,59.97
2022-10-30T20:45:15.628Z,60.18
2022-10-30T20:47:41.724Z,60.34
2022-10-30T20:50:07.833Z,60.46
2022-10-30T20:52:34.112Z,60.44
2022-10-30T20:55:01.148Z,60.67
2022-10-30T20:57:27.311Z,60.96
2022-10-30T20:59:53.436Z,61.12
2022-10-30T21:02:19.648Z,60.99
2022-10-30T21:04:45.851Z,61.35
2022-10-30T21:07:11.956Z,61.33
2022-10-30T21:09:38.074Z,61.53
2022-10-30T21:12:04.194Z,61.57
2022-10-30T21:14:30.300Z,61.55
2022-10-30T21:16:56.418Z,61.65
2022-10-30T21:19:22.537Z,61.70
2022-10-30T21:21:48.641Z,61.92
2022-10-30T21:24:14.766Z,61.94
2022-10-30T21:26:40.869Z,61.89
2022-10-30T21:29:06.986Z,61.98
2022-10-30T21:31:33.094Z,62.03
2022-10-30T21:33:59.199Z,62.29
2022-10-30T21:36:25.297Z,62.38
2022-10-30T21:38:51.430Z,62.31
2022-10-30T21:41:17.539Z,62.49
2022-10-30T21:43:43.659Z,62.49
2022-10-30T21:46:09.899Z,62.48
2022-10-30T21:48:36.054Z,62.64
2022-10-30T21:51:02.181Z,62.83
2022-10-30T21:53:28.329Z,62.75
2022-10-30T21:55:54.469Z,62.91
2022-10-30T21:58:20.572Z,63.00
2022-10-30T22:00:47.710Z,63.08
2022-10-30T22:03:13.897Z,63.20
2022-10-30T22:05:39.984Z,63.21
2022-10-30T22:08:06.109Z,63.27
2022-10-30T22:10:32.201Z,63.12
2022-10-30T22:12:58.360Z,63.17
2022-10-30T22:15:24.532Z,63.35
2022-10-30T22:17:50.625Z,63.54
2022-10-30T22:20:16.720Z,63.45
2022-10-30T22:22:42.833Z,63.72
2022-10-30T22:25:08.924Z,63.73
2022-10-30T22:27:35.016Z,63.92
2022-10-30T22:30:01.413Z,63.69
2022-10-30T22:32:27.507Z,63.89
2022-10-30T22:34:53.601Z,64.22
2022-10-30T22:37:19.714Z,64.31
2022-10-30T22:39:45.879Z,64.58
2022-10-30T22:42:11.971Z,64.82
2022-10-30T22:44:38.078Z,65.11
2022-10-30T22:47:04.184Z,65.46
2022-10-30T22:49:30.285Z,65.50
2022-10-30T22:51:56.417Z,65.59
2022-10-30T22:54:22.528Z,65.71
2022-10-30T22:56:48.622Z,65.75
2022-10-30T22:59:14.745Z,66.04
2022-10-30T23:01:40.871Z,66.23
2022-10-30T23:04:07.046Z,66.15
2022-10-30T23:06:33.213Z,66.37
2022-10-30T23:08:59.349Z,66.83
2022-10-30T23:11:25.567Z,66.74
2022-10-30T23:13:51.732Z,66.87
2022-10-30T23:16:17.816Z,66.81
2022-10-30T23:18:43.911Z,66.99
2022-10-30T23:21:10.028Z,66.92
2022-10-30T23:23:36.116Z,67.05
2022-10-30T23:26:02.259Z,67.08
2022-10-30T23:28:28.381Z,67.02
2022-10-30T23:30:54.483Z,67.08
2022-10-30T23:33:20.579Z,67.01
2022-10-30T23:35:46.696Z,67.26
2022-10-30T23:38:12.800Z,67.38
2022-10-30T23:40:38.885Z,67.59
2022-10-30T23:43:05.122Z,67.71
2022-10-30T23:45:31.351Z,67.61
2022-10-30T23:47:57.759Z,67.75
2022-10-30T23:50:24.072Z,67.91
2022-10-30T23:52:50.185Z,67.77
2022-10-30T23:55:16.271Z,67.94
2022-10-30T23:57:42.415Z,68.15
